METAR Data
IDs: Format: Raw Decoded Include TAF

Data at: 1326 UTC 10 Aug 2022

KOVE 101253Z AUTO 15009KT 10SM CLR 18/12 A3000 RMK AO2 SLP158 T01780122
KOVE 101153Z AUTO 16008KT 10SM CLR 18/12 A2999 RMK AO2 SLP155 T01780122 10244 20178 53001
KOVE 101053Z AUTO 15011KT 10SM CLR 19/12 A2998 RMK AO2 SLP152 T01890117
KOVE 100953Z AUTO 15013KT 10SM CLR 20/11 A2998 RMK AO2 SLP152 T02000106
KOVE 100853Z AUTO 17006KT 10SM CLR 21/10 A2998 RMK AO2 SLP154 T02110100 51012
KOVE 100753Z AUTO 14010KT 10SM CLR 22/10 A2998 RMK AO2 SLP151 T02220100 403500206
KOVE 100653Z AUTO 17010KT 10SM CLR 23/09 A2997 RMK AO2 SLP148 T02280089
KOVE 100553Z AUTO 15012KT 10SM CLR 24/09 A2995 RMK AO2 SLP143 T02440089 10350 20244 53023
KOVE 100453Z AUTO 15015KT 10SM CLR 26/10 A2993 RMK AO2 SLP134 T02560100
KOVE 100353Z AUTO 16014KT 10SM CLR 28/11 A2990 RMK AO2 SLP125 T02780106
KOVE 100253Z AUTO 16014KT 10SM CLR 31/08 A2988 RMK AO2 SLP119 T03060078 53002
KOVE 100153Z AUTO 17014KT 10SM CLR 33/07 A2987 RMK AO2 SLP113 T03330067
KOVE 100053Z AUTO 16014KT 10SM CLR 34/07 A2987 RMK AO2 SLP114 T03440072
KOVE 092353Z AUTO 15014KT 10SM CLR 34/06 A2988 RMK AO2 SLP117 T03440056 10350 20250 56015
KOVE 092253Z AUTO 17010KT 10SM CLR 34/07 A2989 RMK AO2 SLP121 T03440067
KOVE 092153Z AUTO 18009G20KT 160V220 10SM CLR 33/12 A2991 RMK AO2 SLP127 T03330117
KOVE 092053Z AUTO 14011KT 10SM CLR 32/13 A2992 RMK AO2 SLP131 T03170128 58009
KOVE 091953Z AUTO 16011KT 10SM CLR 29/14 A2993 RMK AO2 SLP136 T02890144
KOVE 091853Z AUTO 15008KT 10SM CLR 28/14 A2994 RMK AO2 SLP139 T02780144
KOVE 091753Z AUTO 15008KT 10SM CLR 25/14 A2995 RMK AO2 SLP141 T02500139 10256 20206 50001
KOVE 091653Z AUTO 14007KT 10SM CLR 23/14 A2995 RMK AO2 SLP142 T02330139
KOVE 091553Z AUTO 16009KT 10SM CLR 22/13 A2995 RMK AO2 SLP141 T02220133
KOVE 091453Z AUTO 16009KT 10SM CLR 21/13 A2994 RMK AO2 SLP139 T02060133 53014 $
KOVE 091353Z AUTO 15009KT 10SM CLR 21/13 A2993 RMK AO2 SLP134 T02060128
KOVE 091253Z AUTO 14006KT 10SM CLR 21/13 A2992 RMK AO2 SLP130 T02060128
KOVE 091153Z AUTO 16009KT 10SM FEW120 21/12 A2990 RMK AO2 SLP126 7//// T02110122 10289 20211 53005
KOVE 091053Z AUTO 14009KT 10SM CLR 22/12 A2989 RMK AO2 SLP121 T02220122
KOVE 090953Z AUTO 15010KT 10SM CLR 23/12 A2989 RMK AO2 SLP120 T02280122
KOVE 090853Z AUTO 17012KT 10SM CLR 24/12 A2989 RMK AO2 SLP120 T02390122 50001
KOVE 090753Z AUTO 17009KT 10SM CLR 24/12 A2989 RMK AO2 SLP121 T02440117
KOVE 090653Z AUTO 17008KT 10SM CLR 26/11 A2989 RMK AO2 SLP120 T02610111
KOVE 090553Z AUTO 16008KT 10SM CLR 29/09 A2988 RMK AO2 SLP120 60000 T02890094 10350 20289 51011
KOVE 090453Z AUTO 15011KT 10SM CLR 30/08 A2988 RMK AO2 RAB11E20 SLPNO P0000 T03000078
KOVE 090353Z AUTO 15010KT 10SM FEW070 32/10 A2986 RMK AO2 SLPNO T03170100
KOVE 090253Z AUTO 15007KT 10SM CLR 33/09 A2985 RMK AO2 SLPNO T03330089 55005
KOVE 090153Z AUTO 16007KT 10SM CLR 34/08 A2985 RMK AO2 SLPNO T03440078